Time;durP1;ratioP1;P1;durP2;ratioP2;P2;SDS_P1;SDS_P2;PMS_P1;PMS_P2;Temp;Humidity;BMP_temperature;BMP_pressure;BME280_temperature;BME280_humidity;BME280_pressure;Samples;Min_cycle;Max_cycle;Signal;HPM_P1;HPM_P2
2023/03/24 01:58:52;;;;;;;10.57;7.30;;;11.60;99.90;;;;;;5300555;23;20445;-94
2023/03/24 02:07:58;;;;;;;10.63;7.40;;;11.70;99.90;;;;;;5104810;23;20516;-94
2023/03/24 02:10:37;;;;;;;;;;;;;;;;;;;;;
2023/03/24 02:13:53;;;;;;;10.75;7.50;;;11.70;99.90;;;;;;4892272;29;20422;-94
2023/03/24 02:45:28;;;;;;;;;;;;;;;;;;;;;
2023/03/24 02:52:49;;;;;;;9.20;7.03;;;11.80;99.90;;;;;;4820386;29;20489;-95
2023/03/24 02:56:18;;;;;;;12.38;9.63;;;11.80;99.90;;;;;;4853407;29;20804;-95
2023/03/24 02:59:30;;;;;;;13.00;10.33;;;11.70;99.90;;;;;;5098282;23;20393;-94
2023/03/24 03:02:32;;;;;;;11.88;9.88;;;11.60;99.90;;;;;;4823711;29;20435;-95
2023/03/24 03:05:52;;;;;;;10.25;8.40;;;11.70;99.90;;;;;;4895231;23;20429;-94
2023/03/24 03:08:46;;;;;;;10.70;9.00;;;11.80;99.90;;;;;;5113756;23;20439;-95
2023/03/24 03:11:32;;;;;;;5.32;4.10;;;11.50;99.90;;;;;;4890730;29;20506;-92
2023/03/24 03:14:25;;;;;;;8.47;5.87;;;11.50;99.90;;;;;;4871846;29;20436;-95
2023/03/24 03:49:17;;;;;;;7.80;1.50;;;10.90;99.90;;;;;;4928333;29;20445;-95
2023/03/24 03:51:58;;;;;;;6.05;1.10;;;11.00;99.90;;;;;;4907921;29;20421;-96
2023/03/24 03:54:49;;;;;;;6.88;1.00;;;10.80;99.90;;;;;;4894961;29;20532;-95
2023/03/24 04:04:06;;;;;;;7.78;1.08;;;10.60;99.90;;;;;;4906696;29;20538;-95
2023/03/24 04:07:06;;;;;;;7.90;0.97;;;10.50;99.90;;;;;;4893505;29;20781;-95
2023/03/24 04:10:12;;;;;;;7.95;0.90;;;10.50;99.90;;;;;;4890573;29;20425;-93
2023/03/24 04:12:56;;;;;;;11.48;1.20;;;10.40;99.90;;;;;;4891509;29;20488;-92
2023/03/24 04:15:59;;;;;;;7.95;1.08;;;10.30;99.90;;;;;;4891316;29;20431;-95
2023/03/24 04:18:55;;;;;;;7.53;1.00;;;10.20;99.90;;;;;;4989617;23;20455;-92
2023/03/24 04:21:55;;;;;;;9.35;1.13;;;10.10;99.90;;;;;;4891507;29;20898;-94
2023/03/24 04:25:05;;;;;;;11.43;1.13;;;10.00;99.90;;;;;;4892376;29;20438;-93
2023/03/24 04:27:55;;;;;;;10.75;1.52;;;10.00;99.90;;;;;;4837337;29;20450;-94
2023/03/24 04:31:00;;;;;;;12.25;1.27;;;9.90;99.90;;;;;;4854055;29;20454;-94
2023/03/24 04:34:18;;;;;;;8.05;1.15;;;9.80;99.90;;;;;;4891028;29;20478;-94
2023/03/24 05:27:58;;;;;;;;;;;;;;;;;;;;;
2023/03/24 05:40:31;;;;;;;16.27;2.30;;;9.60;99.90;;;;;;4974869;23;20437;-96
2023/03/24 08:24:23;;;;;;;19.30;2.97;;;11.00;99.90;;;;;;5172581;23;20429;-96
2023/03/24 08:57:49;;;;;;;17.05;2.75;;;11.40;99.90;;;;;;4929401;29;20449;-95
2023/03/24 09:00:49;;;;;;;19.15;3.03;;;11.60;99.90;;;;;;4903339;29;20453;-94
2023/03/24 09:03:38;;;;;;;17.83;2.83;;;11.40;99.90;;;;;;4895373;29;20423;-94
2023/03/24 09:06:21;;;;;;;17.50;2.90;;;11.30;99.90;;;;;;4900909;29;20425;-92
2023/03/24 09:09:06;;;;;;;20.77;3.03;;;11.50;99.90;;;;;;4899412;29;20417;-95
2023/03/24 09:11:59;;;;;;;18.23;2.45;;;11.30;99.90;;;;;;4899259;29;20429;-95
2023/03/24 09:14:28;;;;;;;15.35;2.20;;;11.60;99.90;;;;;;4895948;29;20465;-96
2023/03/24 09:21:08;;;;;;;16.77;2.58;;;11.70;99.90;;;;;;4873396;29;20444;-95
2023/03/24 09:24:18;;;;;;;15.80;2.50;;;12.10;99.90;;;;;;4872612;29;20426;-94
2023/03/24 09:26:46;;;;;;;16.70;2.67;;;12.50;99.90;;;;;;4833111;29;20518;-94
2023/03/24 09:30:03;;;;;;;17.52;2.15;;;12.50;99.90;;;;;;4850252;29;20938;-92
2023/03/24 09:32:41;;;;;;;17.52;2.70;;;12.40;99.90;;;;;;4871740;29;20421;-92
2023/03/24 09:38:45;;;;;;;18.35;2.60;;;12.10;99.90;;;;;;4850361;29;20423;-94
2023/03/24 09:41:30;;;;;;;17.15;2.53;;;12.10;99.90;;;;;;4854810;29;20562;-95
2023/03/24 09:44:14;;;;;;;15.57;2.38;;;12.50;99.90;;;;;;4852002;29;20517;-94
2023/03/24 09:51:06;;;;;;;15.23;2.25;;;12.50;99.90;;;;;;4907631;29;20427;-95
2023/03/24 09:53:50;;;;;;;15.75;2.30;;;12.60;99.90;;;;;;4844318;29;20435;-93
2023/03/24 09:56:22;;;;;;;14.85;2.10;;;12.50;99.90;;;;;;4890435;29;20411;-95
2023/03/24 09:59:58;;;;;;;11.65;2.05;;;12.30;99.90;;;;;;4906347;29;20419;-94
2023/03/24 10:02:30;;;;;;;16.52;2.25;;;12.30;99.90;;;;;;4835069;29;20424;-94
2023/03/24 10:05:11;;;;;;;12.45;1.63;;;12.30;99.90;;;;;;4901300;29;20439;-96
2023/03/24 10:08:44;;;;;;;11.80;1.50;;;12.50;99.90;;;;;;4904737;29;20517;-94
2023/03/24 10:11:46;;;;;;;14.15;2.05;;;12.70;99.90;;;;;;4832349;29;20430;-94
2023/03/24 10:14:48;;;;;;;11.45;1.70;;;13.10;99.90;;;;;;4799699;29;20434;-95
2023/03/24 10:17:39;;;;;;;11.68;1.65;;;13.30;97.50;;;;;;4814450;29;20488;-93
2023/03/24 10:20:42;;;;;;;;;;;;;;;;;;;;;
2023/03/24 10:23:57;;;;;;;12.85;2.00;;;13.70;94.20;;;;;;4907625;29;20418;-95
2023/03/24 10:26:52;;;;;;;11.02;1.77;;;14.10;94.50;;;;;;4885594;29;20510;-94
2023/03/24 10:29:34;;;;;;;11.60;1.70;;;14.40;86.20;;;;;;4889674;29;20427;-96
2023/03/24 10:32:20;;;;;;;14.57;2.22;;;14.70;86.30;;;;;;4898684;29;20426;-95
2023/03/24 10:35:10;;;;;;;11.32;2.20;;;15.20;88.20;;;;;;4902564;29;20455;-95
2023/03/24 10:37:36;;;;;;;10.73;2.00;;;15.40;85.30;;;;;;4859330;29;20422;-94
2023/03/24 10:40:15;;;;;;;10.18;2.00;;;15.70;84.80;;;;;;4905080;29;20434;-94
2023/03/24 10:42:42;;;;;;;13.57;1.73;;;15.90;75.30;;;;;;4904664;29;20442;-93
2023/03/24 10:45:32;;;;;;;13.95;2.28;;;16.40;71.10;;;;;;4906838;29;20423;-95
2023/03/24 10:48:20;;;;;;;13.70;2.07;;;16.10;71.00;;;;;;4899363;29;20427;-95
2023/03/24 10:50:57;;;;;;;13.15;2.00;;;16.20;71.30;;;;;;4862150;29;20419;-95
2023/03/24 10:53:40;;;;;;;13.63;2.03;;;16.70;69.90;;;;;;4902941;29;20414;-95
2023/03/24 10:56:22;;;;;;;11.50;1.80;;;16.90;70.10;;;;;;4899725;29;20490;-94
2023/03/24 10:58:48;;;;;;;14.02;2.70;;;16.40;70.00;;;;;;4883702;29;20793;-95
2023/03/24 11:01:29;;;;;;;13.40;2.00;;;16.20;70.00;;;;;;4902240;29;20426;-95
2023/03/24 11:04:04;;;;;;;13.68;2.40;;;16.20;69.30;;;;;;4899270;29;20434;-96
2023/03/24 11:06:59;;;;;;;11.65;2.20;;;15.90;71.70;;;;;;4896926;29;20809;-94
2023/03/24 11:09:42;;;;;;;12.57;2.00;;;16.40;75.40;;;;;;4903512;29;20438;-92
2023/03/24 11:12:40;;;;;;;12.57;2.25;;;16.10;72.50;;;;;;4894429;29;20423;-94
2023/03/24 11:15:44;;;;;;;13.30;2.13;;;16.80;70.10;;;;;;4880704;29;20423;-95
2023/03/24 11:21:14;;;;;;;11.95;2.00;;;17.30;62.60;;;;;;4899798;29;20423;-95
2023/03/24 11:23:44;;;;;;;12.73;2.30;;;17.50;61.50;;;;;;4898392;29;20510;-95
2023/03/24 11:26:23;;;;;;;11.75;2.30;;;17.20;61.10;;;;;;4900071;29;20462;-96
2023/03/24 11:29:12;;;;;;;12.82;1.95;;;17.30;60.30;;;;;;4902211;29;20427;-96
2023/03/24 11:31:55;;;;;;;10.82;1.88;;;17.30;60.70;;;;;;4890578;29;20431;-95
2023/03/24 11:34:45;;;;;;;13.40;2.38;;;16.80;57.30;;;;;;4904935;29;20455;-96
2023/03/24 11:38:00;;;;;;;10.77;2.03;;;16.40;61.20;;;;;;4831925;29;20424;-96
2023/03/24 11:40:25;;;;;;;12.23;1.80;;;16.30;60.50;;;;;;4825547;29;20451;-94
2023/03/24 11:43:02;;;;;;;10.25;1.80;;;16.30;63.70;;;;;;4830188;29;20420;-96
2023/03/24 11:46:15;;;;;;;15.68;2.15;;;16.60;66.00;;;;;;4832516;29;20432;-95
2023/03/24 11:48:57;;;;;;;11.35;1.52;;;16.50;65.80;;;;;;4856426;29;20486;-95
2023/03/24 11:52:04;;;;;;;9.85;1.52;;;16.60;62.50;;;;;;4886470;29;20447;-96
2023/03/24 11:54:35;;;;;;;10.88;1.60;;;16.70;64.00;;;;;;4816512;29;20436;-94
2023/03/24 11:57:39;;;;;;;11.80;1.73;;;17.10;61.30;;;;;;4898652;29;20502;-95
2023/03/24 12:00:43;;;;;;;12.45;1.65;;;16.90;58.70;;;;;;4864010;29;20507;-94
2023/03/24 12:03:38;;;;;;;;;;;;;;;;;;;;;
2023/03/24 12:06:27;;;;;;;10.75;1.77;;;16.60;60.80;;;;;;4909844;29;20532;-95
2023/03/24 12:09:36;;;;;;;11.53;1.67;;;16.20;62.20;;;;;;4887971;29;20454;-95
2023/03/24 12:12:50;;;;;;;12.63;2.03;;;16.20;63.40;;;;;;4889476;29;20423;-95
2023/03/24 12:15:35;;;;;;;11.13;1.50;;;16.40;63.50;;;;;;4895201;29;21345;-96
2023/03/24 12:18:26;;;;;;;12.60;2.10;;;16.30;64.40;;;;;;4890539;29;20426;-96
2023/03/24 12:24:58;;;;;;;11.90;1.85;;;16.30;65.70;;;;;;4907368;29;20441;-95
2023/03/24 12:31:34;;;;;;;14.45;2.42;;;16.30;66.50;;;;;;4885118;29;20423;-96
2023/03/24 12:34:19;;;;;;;10.30;1.67;;;16.70;67.00;;;;;;4891168;29;20454;-95
2023/03/24 12:37:16;;;;;;;11.98;1.88;;;16.90;67.10;;;;;;4888461;29;20522;-95
2023/03/24 12:39:54;;;;;;;11.73;1.98;;;16.60;64.90;;;;;;4901035;29;20415;-95
2023/03/24 12:42:36;;;;;;;11.18;1.67;;;16.80;68.40;;;;;;4888557;29;20439;-96
2023/03/24 12:45:53;;;;;;;11.00;2.07;;;16.70;65.10;;;;;;4899075;29;20415;-94
2023/03/24 12:49:01;;;;;;;12.95;2.20;;;17.20;67.10;;;;;;4856600;29;20431;-96
2023/03/24 12:52:14;;;;;;;12.95;1.83;;;17.70;64.20;;;;;;4880686;29;20457;-94
2023/03/24 12:55:16;;;;;;;9.68;1.25;;;18.20;61.00;;;;;;4830572;29;20823;-96
2023/03/24 12:58:36;;;;;;;8.20;1.20;;;18.40;57.50;;;;;;4835896;29;20471;-95
2023/03/24 13:01:23;;;;;;;9.32;1.55;;;18.10;55.10;;;;;;4786204;29;21150;-95
2023/03/24 13:04:15;;;;;;;7.80;1.30;;;17.60;55.10;;;;;;4815436;29;20484;-95
2023/03/24 13:07:01;;;;;;;9.05;1.42;;;17.20;57.50;;;;;;4859758;29;20498;-94
2023/03/24 13:09:59;;;;;;;10.05;1.55;;;17.10;58.00;;;;;;4887474;29;20501;-95
2023/03/24 13:13:09;;;;;;;9.52;1.50;;;17.50;58.40;;;;;;4891503;29;20430;-96
2023/03/24 13:15:40;;;;;;;12.18;1.88;;;17.70;55.30;;;;;;4900121;29;20427;-93
2023/03/24 13:18:09;;;;;;;11.30;1.70;;;18.20;56.80;;;;;;4888588;29;20414;-96
2023/03/24 13:21:11;;;;;;;8.65;1.40;;;18.20;55.10;;;;;;4903734;29;20442;-93
2023/03/24 13:24:01;;;;;;;8.25;1.15;;;18.20;54.10;;;;;;4883934;29;20433;-96
2023/03/24 13:26:57;;;;;;;9.27;1.10;;;17.90;52.70;;;;;;4888938;29;20423;-96
2023/03/24 13:29:49;;;;;;;8.07;1.33;;;18.00;51.50;;;;;;4883802;29;20419;-95
2023/03/24 13:32:42;;;;;;;8.47;1.03;;;18.50;54.20;;;;;;4888065;29;20423;-95
2023/03/24 13:35:38;;;;;;;10.40;1.55;;;18.20;54.50;;;;;;4888418;29;20815;-96
2023/03/24 13:38:38;;;;;;;10.02;1.50;;;18.00;53.80;;;;;;4885783;29;20449;-95
2023/03/24 13:41:18;;;;;;;10.00;1.10;;;18.00;54.40;;;;;;4889292;29;20442;-93
2023/03/24 13:44:06;;;;;;;10.00;1.60;;;17.60;52.50;;;;;;4902715;29;20474;-94
2023/03/24 13:46:51;;;;;;;11.57;1.77;;;17.30;54.60;;;;;;4901612;29;20423;-90
2023/03/24 13:49:18;;;;;;;11.55;1.52;;;16.30;56.80;;;;;;4887514;29;20513;-94
2023/03/24 13:51:45;;;;;;;11.90;1.55;;;16.20;59.30;;;;;;4895805;29;20479;-95
2023/03/24 13:54:29;;;;;;;11.35;1.77;;;16.20;60.70;;;;;;4900988;29;20467;-93
2023/03/24 13:57:06;;;;;;;14.45;2.55;;;16.10;62.00;;;;;;4898696;29;20419;-94
2023/03/24 14:00:10;;;;;;;14.25;1.88;;;16.20;64.00;;;;;;4897304;29;21035;-94
2023/03/24 14:03:30;;;;;;;11.13;1.30;;;16.10;64.20;;;;;;4899785;29;20950;-95
2023/03/24 14:06:23;;;;;;;;;;;;;;;;;;;;;
2023/03/24 14:09:13;;;;;;;10.75;1.67;;;15.50;63.60;;;;;;4894629;29;20423;-94
2023/03/24 14:11:49;;;;;;;13.00;2.13;;;15.20;64.70;;;;;;4898261;29;20427;-95
2023/03/24 14:14:14;;;;;;;13.65;1.80;;;15.10;69.10;;;;;;4897414;29;20423;-94
2023/03/24 14:17:12;;;;;;;14.80;2.10;;;14.90;69.00;;;;;;4880131;29;20570;-95
2023/03/24 14:20:45;;;;;;;14.80;1.90;;;14.80;72.40;;;;;;4895176;29;20470;-96
2023/03/24 14:23:37;;;;;;;11.80;1.88;;;14.80;72.40;;;;;;4832652;29;20436;-94
2023/03/24 14:26:12;;;;;;;13.15;2.15;;;14.60;72.00;;;;;;4790111;29;20436;-95
2023/03/24 14:28:51;;;;;;;14.30;2.00;;;14.80;77.20;;;;;;4808209;29;20440;-95
2023/03/24 14:31:35;;;;;;;13.05;1.83;;;14.70;82.60;;;;;;4825256;29;20473;-95
2023/03/24 14:34:20;;;;;;;11.33;1.47;;;14.80;80.90;;;;;;4818300;29;20428;-94
2023/03/24 14:37:06;;;;;;;13.02;1.45;;;15.10;75.90;;;;;;4826330;29;20504;-96
2023/03/24 14:42:43;;;;;;;9.93;1.40;;;15.40;77.00;;;;;;4896836;29;20466;-94
2023/03/24 14:45:39;;;;;;;11.85;1.42;;;15.40;75.10;;;;;;4889385;29;20446;-94
2023/03/24 14:52:15;;;;;;;10.38;1.50;;;16.10;70.40;;;;;;4870138;29;20471;-94
2023/03/24 14:55:15;;;;;;;10.85;1.45;;;16.70;66.70;;;;;;4867044;29;20436;-95
2023/03/24 14:57:43;;;;;;;9.77;1.08;;;17.40;63.60;;;;;;4867686;29;20424;-93
2023/03/24 15:00:43;;;;;;;12.38;1.60;;;17.60;62.60;;;;;;4862520;29;20474;-95
2023/03/24 15:03:31;;;;;;;12.82;1.50;;;17.70;61.90;;;;;;4894534;29;20930;-96
2023/03/24 15:06:22;;;;;;;9.27;1.15;;;17.20;60.40;;;;;;4885025;29;20427;-93
2023/03/24 15:09:09;;;;;;;10.35;1.23;;;16.70;63.10;;;;;;4896223;29;20427;-96
2023/03/24 15:12:05;;;;;;;9.93;1.38;;;16.20;65.70;;;;;;4882641;29;20415;-95
2023/03/24 15:14:37;;;;;;;13.70;1.55;;;15.90;65.50;;;;;;4876469;29;20435;-95
2023/03/24 15:17:15;;;;;;;10.63;1.20;;;15.60;67.70;;;;;;4900386;29;20419;-93
2023/03/24 15:19:43;;;;;;;10.03;1.50;;;15.30;67.10;;;;;;4879776;29;20439;-95
2023/03/24 15:22:19;;;;;;;11.70;1.63;;;16.00;69.60;;;;;;4902888;29;20427;-95
2023/03/24 15:24:50;;;;;;;9.88;1.33;;;15.10;71.60;;;;;;4899339;29;20973;-94
2023/03/24 15:27:33;;;;;;;10.05;1.50;;;15.10;75.10;;;;;;4903559;29;20445;-95
2023/03/24 15:30:02;;;;;;;13.35;1.80;;;14.90;73.90;;;;;;4883191;29;20408;-95
2023/03/24 15:32:31;;;;;;;12.45;1.40;;;14.70;75.80;;;;;;4901994;29;20437;-94
2023/03/24 15:35:04;;;;;;;13.37;1.90;;;14.80;77.60;;;;;;4906751;29;20458;-95
2023/03/24 15:37:46;;;;;;;11.50;1.80;;;14.70;81.00;;;;;;4888287;29;20505;-95
2023/03/24 15:41:02;;;;;;;11.68;1.63;;;14.70;85.40;;;;;;4904357;29;20447;-95
2023/03/24 15:43:28;;;;;;;12.57;1.42;;;14.80;85.80;;;;;;4898946;29;20422;-94
2023/03/24 15:45:55;;;;;;;14.13;1.83;;;14.50;85.90;;;;;;4902685;29;20410;-94
2023/03/24 15:48:25;;;;;;;14.03;1.63;;;14.50;91.20;;;;;;4903127;29;20480;-94
2023/03/24 15:51:10;;;;;;;11.77;1.83;;;14.50;90.60;;;;;;4892922;29;20427;-94
2023/03/24 15:53:47;;;;;;;10.43;1.35;;;14.40;88.60;;;;;;4865145;29;20458;-95
2023/03/24 15:56:33;;;;;;;10.68;1.73;;;13.90;85.00;;;;;;4905703;29;20448;-94
2023/03/24 15:59:05;;;;;;;11.48;1.55;;;14.40;88.10;;;;;;4910002;29;20495;-96
2023/03/24 16:01:49;;;;;;;12.57;2.00;;;14.00;90.50;;;;;;4890351;29;20506;-95
2023/03/24 16:04:17;;;;;;;9.85;1.15;;;13.90;91.30;;;;;;4912254;29;20432;-94
2023/03/24 16:07:28;;;;;;;12.00;1.50;;;14.20;90.40;;;;;;4903506;29;20411;-95
2023/03/24 16:10:43;;;;;;;;;;;;;;;;;;;;;
2023/03/24 16:13:23;;;;;;;13.25;1.80;;;13.60;93.30;;;;;;4902783;29;21022;-94
2023/03/24 16:16:57;;;;;;;11.82;1.42;;;13.70;94.80;;;;;;4898237;29;20430;-96
2023/03/24 16:19:32;;;;;;;10.80;1.48;;;13.40;93.70;;;;;;4904169;29;20464;-95
2023/03/24 16:22:27;;;;;;;13.65;1.95;;;13.30;95.40;;;;;;4839259;29;20443;-95
2023/03/24 16:25:43;;;;;;;15.95;2.05;;;13.30;95.80;;;;;;4964665;23;20442;-95
2023/03/24 16:28:23;;;;;;;12.63;1.85;;;13.40;98.40;;;;;;4901879;29;20504;-94
2023/03/24 16:47:16;;;;;;;10.82;1.42;;;12.90;97.80;;;;;;5008753;23;20514;-95
2023/03/24 16:50:17;;;;;;;10.93;1.45;;;12.80;99.60;;;;;;4825789;29;20432;-95
2023/03/24 16:53:03;;;;;;;13.38;1.42;;;13.20;99.00;;;;;;4826427;29;20451;-94
2023/03/24 16:55:46;;;;;;;13.53;2.10;;;12.70;99.90;;;;;;4915544;29;20879;-95
2023/03/24 17:02:16;;;;;;;12.55;1.40;;;12.60;99.90;;;;;;5353603;23;20475;-95
2023/03/24 19:35:42;;;;;;;11.27;1.30;;;10.60;99.90;;;;;;5452722;23;20471;-94
2023/03/24 21:04:28;;;;;;;10.10;1.60;;;10.30;99.90;;;;;;6025120;23;20364;31
2023/03/24 22:42:06;;;;;;;17.20;2.25;;;10.10;99.90;;;;;;5133304;23;20433;-95
2023/03/24 23:08:32;;;;;;;19.33;2.65;;;10.20;99.90;;;;;;5893892;23;21305;31
2023/03/24 23:10:59;;;;;;;17.23;2.67;;;10.30;99.90;;;;;;4859196;29;20463;-93
2023/03/24 23:13:25;;;;;;;17.42;2.58;;;10.40;99.90;;;;;;4860121;29;20419;-92
2023/03/24 23:15:52;;;;;;;17.83;2.38;;;10.40;99.90;;;;;;4859472;29;20563;-94
2023/03/24 23:18:19;;;;;;;23.13;3.50;;;10.30;99.90;;;;;;4861407;29;20433;-93
2023/03/24 23:20:45;;;;;;;17.30;2.53;;;10.30;99.90;;;;;;4859075;29;20571;-92
2023/03/24 23:23:12;;;;;;;22.70;3.45;;;10.50;99.90;;;;;;4861039;29;20795;-93
2023/03/24 23:25:41;;;;;;;20.30;3.00;;;10.30;99.90;;;;;;4859196;29;20422;-93
2023/03/24 23:28:06;;;;;;;18.90;2.90;;;10.30;99.90;;;;;;4860882;29;20423;-92
2023/03/24 23:30:32;;;;;;;19.97;2.93;;;10.40;99.90;;;;;;4859915;29;20936;-94
2023/03/24 23:32:58;;;;;;;24.05;3.20;;;10.30;99.90;;;;;;4860328;29;20431;-94
2023/03/24 23:35:24;;;;;;;20.33;3.17;;;10.30;99.90;;;;;;4860645;29;20918;-92
2023/03/24 23:37:50;;;;;;;20.05;3.50;;;10.40;99.90;;;;;;4859200;29;20433;-93
2023/03/24 23:40:16;;;;;;;20.05;2.60;;;10.30;99.90;;;;;;4860570;29;20814;-93
2023/03/24 23:42:45;;;;;;;20.40;2.70;;;10.20;99.90;;;;;;4858632;29;20459;-96
2023/03/24 23:45:16;;;;;;;19.65;3.72;;;10.20;99.90;;;;;;4861076;29;20723;-91
2023/03/24 23:47:44;;;;;;;21.70;3.20;;;10.20;99.90;;;;;;4859803;29;20445;-93
2023/03/24 23:50:11;;;;;;;21.33;2.92;;;10.20;99.90;;;;;;4860318;29;20795;-94
2023/03/24 23:52:40;;;;;;;17.77;2.83;;;10.20;99.90;;;;;;4860707;29;20438;-93
2023/03/24 23:55:07;;;;;;;18.20;2.35;;;10.30;99.90;;;;;;4859421;29;20930;-93
2023/03/24 23:57:33;;;;;;;17.17;2.65;;;10.20;99.90;;;;;;4860763;29;20506;-93
